Weather at Arba Minch Airport

Public forecast

Using degrees Celsius for public forecast. Weather courtesy of forecast.io.

Closest aviation weather report (METAR) to Arba Minch Airport

Report is more than 6 hours old.

Closest report is Bangui M'Poko International Airport, 1,144.5 nm (2,119.6 km) W.

2022/11/14 13:00 (retrieved 2 years ago)

FEFF 141300Z 26005KT 9999 FEW023 34/22 Q1008 NOSIG

Closest aviation forecast (TAF) to Arba Minch Airport

Forecast is more than 12 hours old.

Closest forecast is Hawassa International Airport, 79.8 nm (147.7 km) NE.

2023/02/22 18:20 (retrieved 1 year ago)

TAF HALA 221530Z 2218/2324 VRB04KT 9999 FEW070